sensor_id;sensor_type;location;lat;lon;timestamp;P1;durP1;ratioP1;P2;durP2;ratioP2
1479;SDS011;732;51.698;4.886;2023-07-24T00:02:25;3.53;;;2.37;;
1479;SDS011;732;51.698;4.886;2023-07-24T00:04:53;4.60;;;2.27;;
1479;SDS011;732;51.698;4.886;2023-07-24T00:07:22;4.10;;;2.37;;
1479;SDS011;732;51.698;4.886;2023-07-24T00:09:51;4.57;;;2.47;;
1479;SDS011;732;51.698;4.886;2023-07-24T00:12:21;4.00;;;2.30;;
1479;SDS011;732;51.698;4.886;2023-07-24T00:14:52;6.07;;;3.00;;
1479;SDS011;732;51.698;4.886;2023-07-24T00:17:21;3.80;;;2.70;;
1479;SDS011;732;51.698;4.886;2023-07-24T00:19:49;5.37;;;2.70;;
1479;SDS011;732;51.698;4.886;2023-07-24T00:22:18;6.13;;;2.67;;
1479;SDS011;732;51.698;4.886;2023-07-24T00:24:46;4.27;;;2.50;;
1479;SDS011;732;51.698;4.886;2023-07-24T00:27:14;4.83;;;2.63;;
1479;SDS011;732;51.698;4.886;2023-07-24T00:29:44;4.30;;;2.80;;
1479;SDS011;732;51.698;4.886;2023-07-24T00:32:14;3.73;;;2.20;;
1479;SDS011;732;51.698;4.886;2023-07-24T00:34:42;6.40;;;2.80;;
1479;SDS011;732;51.698;4.886;2023-07-24T00:37:10;3.37;;;2.23;;
1479;SDS011;732;51.698;4.886;2023-07-24T00:39:39;3.93;;;2.40;;
1479;SDS011;732;51.698;4.886;2023-07-24T00:42:07;4.83;;;2.27;;
1479;SDS011;732;51.698;4.886;2023-07-24T00:44:36;3.90;;;2.30;;
1479;SDS011;732;51.698;4.886;2023-07-24T00:47:04;5.60;;;2.93;;
1479;SDS011;732;51.698;4.886;2023-07-24T00:49:34;5.07;;;2.40;;
1479;SDS011;732;51.698;4.886;2023-07-24T00:52:03;6.43;;;2.73;;
1479;SDS011;732;51.698;4.886;2023-07-24T00:54:32;6.77;;;2.50;;
1479;SDS011;732;51.698;4.886;2023-07-24T00:57:01;4.90;;;2.80;;
1479;SDS011;732;51.698;4.886;2023-07-24T00:59:32;7.13;;;2.60;;
1479;SDS011;732;51.698;4.886;2023-07-24T01:02:01;5.77;;;2.73;;
1479;SDS011;732;51.698;4.886;2023-07-24T01:04:29;4.00;;;2.60;;
1479;SDS011;732;51.698;4.886;2023-07-24T01:06:59;4.37;;;2.40;;
1479;SDS011;732;51.698;4.886;2023-07-24T01:09:27;4.80;;;2.60;;
1479;SDS011;732;51.698;4.886;2023-07-24T01:11:59;4.23;;;2.63;;
1479;SDS011;732;51.698;4.886;2023-07-24T01:14:35;5.13;;;2.50;;
1479;SDS011;732;51.698;4.886;2023-07-24T01:17:11;5.80;;;3.03;;
1479;SDS011;732;51.698;4.886;2023-07-24T01:19:46;4.37;;;2.37;;
1479;SDS011;732;51.698;4.886;2023-07-24T01:22:20;4.17;;;2.50;;
1479;SDS011;732;51.698;4.886;2023-07-24T01:25:01;4.83;;;2.70;;
1479;SDS011;732;51.698;4.886;2023-07-24T01:27:41;5.30;;;3.43;;
1479;SDS011;732;51.698;4.886;2023-07-24T01:30:11;4.73;;;2.83;;
1479;SDS011;732;51.698;4.886;2023-07-24T01:32:41;6.00;;;3.70;;
1479;SDS011;732;51.698;4.886;2023-07-24T01:35:09;5.83;;;3.30;;
1479;SDS011;732;51.698;4.886;2023-07-24T01:37:39;5.73;;;4.00;;
1479;SDS011;732;51.698;4.886;2023-07-24T01:40:09;7.43;;;4.60;;
1479;SDS011;732;51.698;4.886;2023-07-24T01:42:39;6.77;;;4.70;;
1479;SDS011;732;51.698;4.886;2023-07-24T01:45:10;8.47;;;5.50;;
1479;SDS011;732;51.698;4.886;2023-07-24T01:47:38;9.10;;;5.37;;
1479;SDS011;732;51.698;4.886;2023-07-24T01:50:07;9.63;;;6.13;;
1479;SDS011;732;51.698;4.886;2023-07-24T01:52:36;9.60;;;6.43;;
1479;SDS011;732;51.698;4.886;2023-07-24T01:55:06;13.00;;;7.63;;
1479;SDS011;732;51.698;4.886;2023-07-24T01:57:35;10.43;;;7.23;;
1479;SDS011;732;51.698;4.886;2023-07-24T02:00:06;12.83;;;7.13;;
1479;SDS011;732;51.698;4.886;2023-07-24T02:02:36;13.77;;;7.37;;
1479;SDS011;732;51.698;4.886;2023-07-24T02:05:05;13.27;;;7.93;;
1479;SDS011;732;51.698;4.886;2023-07-24T02:07:34;14.70;;;9.20;;
1479;SDS011;732;51.698;4.886;2023-07-24T02:10:03;12.60;;;8.70;;
1479;SDS011;732;51.698;4.886;2023-07-24T02:12:32;14.33;;;9.23;;
1479;SDS011;732;51.698;4.886;2023-07-24T02:15:00;14.60;;;8.63;;
1479;SDS011;732;51.698;4.886;2023-07-24T02:17:30;13.43;;;8.70;;
1479;SDS011;732;51.698;4.886;2023-07-24T02:19:59;18.00;;;9.20;;
1479;SDS011;732;51.698;4.886;2023-07-24T02:22:27;14.23;;;8.77;;
1479;SDS011;732;51.698;4.886;2023-07-24T02:24:56;13.97;;;8.70;;
1479;SDS011;732;51.698;4.886;2023-07-24T02:27:25;14.40;;;9.30;;
1479;SDS011;732;51.698;4.886;2023-07-24T02:29:56;14.50;;;8.40;;
1479;SDS011;732;51.698;4.886;2023-07-24T02:32:25;14.90;;;8.57;;
1479;SDS011;732;51.698;4.886;2023-07-24T02:34:55;13.60;;;9.37;;
1479;SDS011;732;51.698;4.886;2023-07-24T02:37:23;16.13;;;8.60;;
1479;SDS011;732;51.698;4.886;2023-07-24T02:39:52;13.10;;;7.93;;
1479;SDS011;732;51.698;4.886;2023-07-24T02:42:22;11.57;;;7.13;;
1479;SDS011;732;51.698;4.886;2023-07-24T02:44:50;11.60;;;7.50;;
1479;SDS011;732;51.698;4.886;2023-07-24T02:47:20;11.10;;;7.20;;
1479;SDS011;732;51.698;4.886;2023-07-24T02:49:49;10.10;;;7.60;;
1479;SDS011;732;51.698;4.886;2023-07-24T02:52:19;9.67;;;6.73;;
1479;SDS011;732;51.698;4.886;2023-07-24T02:54:47;11.77;;;7.40;;
1479;SDS011;732;51.698;4.886;2023-07-24T02:57:16;10.23;;;6.83;;
1479;SDS011;732;51.698;4.886;2023-07-24T02:59:44;11.63;;;7.57;;
1479;SDS011;732;51.698;4.886;2023-07-24T03:02:13;10.77;;;8.03;;
1479;SDS011;732;51.698;4.886;2023-07-24T03:04:41;14.33;;;7.50;;
1479;SDS011;732;51.698;4.886;2023-07-24T03:07:11;11.10;;;7.53;;
1479;SDS011;732;51.698;4.886;2023-07-24T03:09:40;12.67;;;7.57;;
1479;SDS011;732;51.698;4.886;2023-07-24T03:12:09;11.37;;;7.53;;
1479;SDS011;732;51.698;4.886;2023-07-24T03:14:37;10.77;;;7.23;;
1479;SDS011;732;51.698;4.886;2023-07-24T03:17:06;9.43;;;6.27;;
1479;SDS011;732;51.698;4.886;2023-07-24T03:19:34;13.53;;;6.60;;
1479;SDS011;732;51.698;4.886;2023-07-24T03:22:03;10.53;;;7.07;;
1479;SDS011;732;51.698;4.886;2023-07-24T03:24:31;10.27;;;6.83;;
1479;SDS011;732;51.698;4.886;2023-07-24T03:27:02;10.83;;;6.37;;
1479;SDS011;732;51.698;4.886;2023-07-24T03:29:31;12.77;;;7.23;;
1479;SDS011;732;51.698;4.886;2023-07-24T03:31:59;11.43;;;6.80;;
1479;SDS011;732;51.698;4.886;2023-07-24T03:34:28;10.77;;;6.10;;
1479;SDS011;732;51.698;4.886;2023-07-24T03:36:56;16.43;;;7.70;;
1479;SDS011;732;51.698;4.886;2023-07-24T03:39:24;12.80;;;7.17;;
1479;SDS011;732;51.698;4.886;2023-07-24T03:41:53;14.73;;;8.10;;
1479;SDS011;732;51.698;4.886;2023-07-24T03:44:22;13.47;;;8.07;;
1479;SDS011;732;51.698;4.886;2023-07-24T03:46:51;14.27;;;8.40;;
1479;SDS011;732;51.698;4.886;2023-07-24T03:49:19;11.73;;;7.60;;
1479;SDS011;732;51.698;4.886;2023-07-24T03:51:48;15.07;;;7.83;;
1479;SDS011;732;51.698;4.886;2023-07-24T03:54:17;13.30;;;7.97;;
1479;SDS011;732;51.698;4.886;2023-07-24T03:56:45;12.13;;;7.37;;
1479;SDS011;732;51.698;4.886;2023-07-24T03:59:14;17.67;;;8.77;;
1479;SDS011;732;51.698;4.886;2023-07-24T04:01:43;14.40;;;7.87;;
1479;SDS011;732;51.698;4.886;2023-07-24T04:04:11;12.60;;;7.30;;
1479;SDS011;732;51.698;4.886;2023-07-24T04:06:40;14.70;;;7.30;;
1479;SDS011;732;51.698;4.886;2023-07-24T04:09:08;12.50;;;7.17;;
1479;SDS011;732;51.698;4.886;2023-07-24T04:11:44;14.80;;;7.90;;
1479;SDS011;732;51.698;4.886;2023-07-24T04:14:12;13.77;;;8.13;;
1479;SDS011;732;51.698;4.886;2023-07-24T04:16:40;11.10;;;7.30;;
1479;SDS011;732;51.698;4.886;2023-07-24T04:19:10;14.30;;;8.00;;
1479;SDS011;732;51.698;4.886;2023-07-24T04:21:39;14.73;;;7.57;;
1479;SDS011;732;51.698;4.886;2023-07-24T04:24:07;13.47;;;7.27;;
1479;SDS011;732;51.698;4.886;2023-07-24T04:26:36;10.93;;;7.30;;
1479;SDS011;732;51.698;4.886;2023-07-24T04:29:06;12.67;;;7.50;;
1479;SDS011;732;51.698;4.886;2023-07-24T04:31:34;13.50;;;8.53;;
1479;SDS011;732;51.698;4.886;2023-07-24T04:34:03;14.90;;;8.37;;
1479;SDS011;732;51.698;4.886;2023-07-24T04:36:32;15.03;;;7.93;;
1479;SDS011;732;51.698;4.886;2023-07-24T04:39:01;12.87;;;7.83;;
1479;SDS011;732;51.698;4.886;2023-07-24T04:41:29;15.07;;;9.27;;
1479;SDS011;732;51.698;4.886;2023-07-24T04:43:57;13.37;;;8.00;;
1479;SDS011;732;51.698;4.886;2023-07-24T04:46:26;15.63;;;8.90;;
1479;SDS011;732;51.698;4.886;2023-07-24T04:48:55;18.27;;;9.13;;
1479;SDS011;732;51.698;4.886;2023-07-24T04:51:23;14.67;;;9.00;;
1479;SDS011;732;51.698;4.886;2023-07-24T04:53:54;15.43;;;9.80;;
1479;SDS011;732;51.698;4.886;2023-07-24T04:56:22;18.00;;;10.03;;
1479;SDS011;732;51.698;4.886;2023-07-24T04:58:51;15.47;;;9.10;;
1479;SDS011;732;51.698;4.886;2023-07-24T05:01:19;20.23;;;10.43;;
1479;SDS011;732;51.698;4.886;2023-07-24T05:03:48;18.70;;;10.93;;
1479;SDS011;732;51.698;4.886;2023-07-24T05:06:16;18.90;;;11.13;;
1479;SDS011;732;51.698;4.886;2023-07-24T05:08:45;20.17;;;11.50;;
1479;SDS011;732;51.698;4.886;2023-07-24T05:11:14;19.07;;;12.53;;
1479;SDS011;732;51.698;4.886;2023-07-24T05:13:43;19.87;;;11.17;;
1479;SDS011;732;51.698;4.886;2023-07-24T05:16:11;18.77;;;10.90;;
1479;SDS011;732;51.698;4.886;2023-07-24T05:18:40;22.20;;;11.73;;
1479;SDS011;732;51.698;4.886;2023-07-24T05:21:08;17.57;;;11.40;;
1479;SDS011;732;51.698;4.886;2023-07-24T05:23:36;18.27;;;12.10;;
1479;SDS011;732;51.698;4.886;2023-07-24T05:26:05;20.40;;;12.00;;
1479;SDS011;732;51.698;4.886;2023-07-24T05:28:34;21.93;;;12.93;;
1479;SDS011;732;51.698;4.886;2023-07-24T05:31:04;21.40;;;12.80;;
1479;SDS011;732;51.698;4.886;2023-07-24T05:33:34;23.80;;;13.77;;
1479;SDS011;732;51.698;4.886;2023-07-24T05:36:03;22.80;;;14.37;;
1479;SDS011;732;51.698;4.886;2023-07-24T05:38:32;22.17;;;12.73;;
1479;SDS011;732;51.698;4.886;2023-07-24T05:41:01;27.30;;;13.07;;
1479;SDS011;732;51.698;4.886;2023-07-24T05:43:31;23.43;;;13.17;;
1479;SDS011;732;51.698;4.886;2023-07-24T05:46:01;19.90;;;13.73;;
1479;SDS011;732;51.698;4.886;2023-07-24T05:48:30;22.67;;;13.30;;
1479;SDS011;732;51.698;4.886;2023-07-24T05:50:58;22.37;;;13.27;;
1479;SDS011;732;51.698;4.886;2023-07-24T05:53:27;21.03;;;13.80;;
1479;SDS011;732;51.698;4.886;2023-07-24T05:55:56;24.33;;;13.37;;
1479;SDS011;732;51.698;4.886;2023-07-24T05:58:26;22.67;;;12.60;;
1479;SDS011;732;51.698;4.886;2023-07-24T06:00:55;22.83;;;12.90;;
1479;SDS011;732;51.698;4.886;2023-07-24T06:03:24;21.17;;;13.30;;
1479;SDS011;732;51.698;4.886;2023-07-24T06:05:53;18.80;;;12.73;;
1479;SDS011;732;51.698;4.886;2023-07-24T06:08:23;21.43;;;13.17;;
1479;SDS011;732;51.698;4.886;2023-07-24T06:10:51;21.23;;;12.73;;
1479;SDS011;732;51.698;4.886;2023-07-24T06:13:20;20.07;;;12.43;;
1479;SDS011;732;51.698;4.886;2023-07-24T06:15:49;20.90;;;12.00;;
1479;SDS011;732;51.698;4.886;2023-07-24T06:18:19;17.17;;;11.73;;
1479;SDS011;732;51.698;4.886;2023-07-24T06:20:51;20.70;;;12.10;;
1479;SDS011;732;51.698;4.886;2023-07-24T06:23:20;19.10;;;12.87;;
1479;SDS011;732;51.698;4.886;2023-07-24T06:25:49;20.03;;;13.67;;
1479;SDS011;732;51.698;4.886;2023-07-24T06:28:18;20.77;;;12.63;;
1479;SDS011;732;51.698;4.886;2023-07-24T06:30:51;17.87;;;12.20;;
1479;SDS011;732;51.698;4.886;2023-07-24T06:33:20;20.50;;;14.03;;
1479;SDS011;732;51.698;4.886;2023-07-24T06:35:50;21.47;;;13.90;;
1479;SDS011;732;51.698;4.886;2023-07-24T06:38:19;22.30;;;13.57;;
1479;SDS011;732;51.698;4.886;2023-07-24T06:40:49;19.10;;;12.83;;
1479;SDS011;732;51.698;4.886;2023-07-24T06:43:17;18.40;;;13.23;;
1479;SDS011;732;51.698;4.886;2023-07-24T06:45:46;22.50;;;14.37;;
1479;SDS011;732;51.698;4.886;2023-07-24T06:48:14;20.00;;;13.80;;
1479;SDS011;732;51.698;4.886;2023-07-24T06:50:43;17.90;;;13.13;;
1479;SDS011;732;51.698;4.886;2023-07-24T06:53:13;21.60;;;14.13;;
1479;SDS011;732;51.698;4.886;2023-07-24T06:55:41;22.57;;;13.87;;
1479;SDS011;732;51.698;4.886;2023-07-24T06:58:09;18.40;;;13.67;;
1479;SDS011;732;51.698;4.886;2023-07-24T07:00:37;19.20;;;12.80;;
1479;SDS011;732;51.698;4.886;2023-07-24T07:03:06;20.53;;;15.10;;
1479;SDS011;732;51.698;4.886;2023-07-24T07:05:34;22.47;;;15.77;;
1479;SDS011;732;51.698;4.886;2023-07-24T07:08:03;21.20;;;15.10;;
1479;SDS011;732;51.698;4.886;2023-07-24T07:10:33;23.00;;;17.13;;
1479;SDS011;732;51.698;4.886;2023-07-24T07:13:02;23.87;;;16.97;;
1479;SDS011;732;51.698;4.886;2023-07-24T07:15:30;20.97;;;17.33;;
1479;SDS011;732;51.698;4.886;2023-07-24T07:18:00;23.57;;;17.00;;
1479;SDS011;732;51.698;4.886;2023-07-24T07:20:28;21.50;;;17.43;;
1479;SDS011;732;51.698;4.886;2023-07-24T07:22:57;20.57;;;17.00;;
1479;SDS011;732;51.698;4.886;2023-07-24T07:25:25;21.53;;;16.37;;
1479;SDS011;732;51.698;4.886;2023-07-24T07:27:55;21.00;;;14.70;;
1479;SDS011;732;51.698;4.886;2023-07-24T07:30:24;16.47;;;14.60;;
1479;SDS011;732;51.698;4.886;2023-07-24T07:32:52;19.00;;;13.50;;
1479;SDS011;732;51.698;4.886;2023-07-24T07:35:21;21.13;;;13.50;;
1479;SDS011;732;51.698;4.886;2023-07-24T07:37:49;18.30;;;13.23;;
1479;SDS011;732;51.698;4.886;2023-07-24T07:40:18;17.20;;;13.63;;
1479;SDS011;732;51.698;4.886;2023-07-24T07:42:46;16.87;;;13.50;;
1479;SDS011;732;51.698;4.886;2023-07-24T07:45:16;16.37;;;12.23;;
1479;SDS011;732;51.698;4.886;2023-07-24T07:47:44;16.67;;;11.97;;
1479;SDS011;732;51.698;4.886;2023-07-24T07:50:13;16.10;;;10.73;;
1479;SDS011;732;51.698;4.886;2023-07-24T07:52:41;15.60;;;9.77;;
1479;SDS011;732;51.698;4.886;2023-07-24T07:55:10;12.77;;;8.70;;
1479;SDS011;732;51.698;4.886;2023-07-24T07:57:40;12.70;;;9.33;;
1479;SDS011;732;51.698;4.886;2023-07-24T08:00:08;11.63;;;8.80;;
1479;SDS011;732;51.698;4.886;2023-07-24T08:02:40;22.37;;;9.10;;
1479;SDS011;732;51.698;4.886;2023-07-24T08:05:08;15.17;;;9.90;;
1479;SDS011;732;51.698;4.886;2023-07-24T08:07:46;13.33;;;8.77;;
1479;SDS011;732;51.698;4.886;2023-07-24T08:10:14;13.03;;;8.87;;
1479;SDS011;732;51.698;4.886;2023-07-24T08:12:43;14.80;;;9.33;;
1479;SDS011;732;51.698;4.886;2023-07-24T08:15:11;10.30;;;8.70;;
1479;SDS011;732;51.698;4.886;2023-07-24T08:17:41;16.23;;;9.37;;
1479;SDS011;732;51.698;4.886;2023-07-24T08:20:10;10.73;;;9.00;;
1479;SDS011;732;51.698;4.886;2023-07-24T08:22:39;12.30;;;8.60;;
1479;SDS011;732;51.698;4.886;2023-07-24T08:25:08;12.83;;;8.60;;
1479;SDS011;732;51.698;4.886;2023-07-24T08:27:36;12.30;;;7.47;;
1479;SDS011;732;51.698;4.886;2023-07-24T08:30:25;10.50;;;8.03;;
1479;SDS011;732;51.698;4.886;2023-07-24T08:32:56;9.30;;;7.33;;
1479;SDS011;732;51.698;4.886;2023-07-24T08:35:26;10.43;;;6.60;;
1479;SDS011;732;51.698;4.886;2023-07-24T08:37:55;9.27;;;6.63;;
1479;SDS011;732;51.698;4.886;2023-07-24T08:40:23;11.23;;;7.13;;
1479;SDS011;732;51.698;4.886;2023-07-24T08:42:51;8.60;;;6.77;;
1479;SDS011;732;51.698;4.886;2023-07-24T08:45:21;11.00;;;6.67;;
1479;SDS011;732;51.698;4.886;2023-07-24T08:47:53;7.97;;;7.00;;
1479;SDS011;732;51.698;4.886;2023-07-24T08:50:24;11.90;;;7.27;;
1479;SDS011;732;51.698;4.886;2023-07-24T08:52:54;9.67;;;7.60;;
1479;SDS011;732;51.698;4.886;2023-07-24T08:55:24;11.53;;;8.10;;
1479;SDS011;732;51.698;4.886;2023-07-24T08:57:54;10.53;;;8.10;;
1479;SDS011;732;51.698;4.886;2023-07-24T09:00:25;11.17;;;8.77;;
1479;SDS011;732;51.698;4.886;2023-07-24T09:02:54;16.87;;;10.50;;
1479;SDS011;732;51.698;4.886;2023-07-24T09:05:25;14.17;;;11.53;;
1479;SDS011;732;51.698;4.886;2023-07-24T09:07:53;15.93;;;12.60;;
1479;SDS011;732;51.698;4.886;2023-07-24T09:10:23;17.10;;;12.83;;
1479;SDS011;732;51.698;4.886;2023-07-24T09:12:53;23.07;;;16.43;;
1479;SDS011;732;51.698;4.886;2023-07-24T09:15:21;19.00;;;15.30;;
1479;SDS011;732;51.698;4.886;2023-07-24T09:17:50;22.13;;;16.37;;
1479;SDS011;732;51.698;4.886;2023-07-24T09:20:20;18.27;;;14.70;;
1479;SDS011;732;51.698;4.886;2023-07-24T09:22:54;15.67;;;13.60;;
1479;SDS011;732;51.698;4.886;2023-07-24T09:25:41;20.47;;;14.80;;
1479;SDS011;732;51.698;4.886;2023-07-24T09:28:11;25.50;;;15.37;;
1479;SDS011;732;51.698;4.886;2023-07-24T09:30:42;15.40;;;11.50;;
1479;SDS011;732;51.698;4.886;2023-07-24T09:33:20;17.30;;;12.80;;
1479;SDS011;732;51.698;4.886;2023-07-24T09:35:59;17.80;;;12.33;;
1479;SDS011;732;51.698;4.886;2023-07-24T09:38:29;14.97;;;11.20;;
1479;SDS011;732;51.698;4.886;2023-07-24T09:41:00;13.70;;;11.83;;
1479;SDS011;732;51.698;4.886;2023-07-24T09:43:30;13.23;;;10.30;;
1479;SDS011;732;51.698;4.886;2023-07-24T09:46:07;14.87;;;9.90;;
1479;SDS011;732;51.698;4.886;2023-07-24T09:48:38;15.23;;;9.60;;
1479;SDS011;732;51.698;4.886;2023-07-24T09:51:28;14.63;;;9.73;;
1479;SDS011;732;51.698;4.886;2023-07-24T09:54:03;13.13;;;8.80;;
1479;SDS011;732;51.698;4.886;2023-07-24T09:56:42;10.50;;;7.90;;
1479;SDS011;732;51.698;4.886;2023-07-24T09:59:20;12.33;;;7.83;;
1479;SDS011;732;51.698;4.886;2023-07-24T10:01:51;11.37;;;8.33;;
1479;SDS011;732;51.698;4.886;2023-07-24T10:04:20;11.17;;;7.77;;
1479;SDS011;732;51.698;4.886;2023-07-24T10:06:51;14.37;;;7.60;;
1479;SDS011;732;51.698;4.886;2023-07-24T10:09:22;10.60;;;7.17;;
1479;SDS011;732;51.698;4.886;2023-07-24T10:11:55;11.90;;;7.13;;
1479;SDS011;732;51.698;4.886;2023-07-24T10:14:25;10.60;;;7.30;;
1479;SDS011;732;51.698;4.886;2023-07-24T10:16:55;9.10;;;6.53;;
1479;SDS011;732;51.698;4.886;2023-07-24T10:19:24;9.40;;;6.70;;
1479;SDS011;732;51.698;4.886;2023-07-24T10:22:04;11.67;;;6.03;;
1479;SDS011;732;51.698;4.886;2023-07-24T10:24:36;10.90;;;5.93;;
1479;SDS011;732;51.698;4.886;2023-07-24T10:27:08;8.03;;;5.00;;
1479;SDS011;732;51.698;4.886;2023-07-24T10:29:37;8.53;;;5.90;;
1479;SDS011;732;51.698;4.886;2023-07-24T10:32:16;8.63;;;5.60;;
1479;SDS011;732;51.698;4.886;2023-07-24T10:34:55;8.80;;;6.50;;
1479;SDS011;732;51.698;4.886;2023-07-24T10:37:33;7.73;;;6.07;;
1479;SDS011;732;51.698;4.886;2023-07-24T10:40:05;9.10;;;6.37;;
1479;SDS011;732;51.698;4.886;2023-07-24T10:42:46;9.10;;;6.23;;
1479;SDS011;732;51.698;4.886;2023-07-24T10:45:14;8.97;;;6.10;;
1479;SDS011;732;51.698;4.886;2023-07-24T10:47:43;12.33;;;6.77;;
1479;SDS011;732;51.698;4.886;2023-07-24T10:50:12;14.77;;;10.00;;
1479;SDS011;732;51.698;4.886;2023-07-24T10:52:41;11.63;;;8.73;;
1479;SDS011;732;51.698;4.886;2023-07-24T10:55:11;12.20;;;8.87;;
1479;SDS011;732;51.698;4.886;2023-07-24T10:57:40;15.30;;;8.10;;
1479;SDS011;732;51.698;4.886;2023-07-24T11:00:08;12.57;;;8.67;;
1479;SDS011;732;51.698;4.886;2023-07-24T11:02:39;12.50;;;8.00;;
1479;SDS011;732;51.698;4.886;2023-07-24T11:05:08;9.90;;;7.33;;
1479;SDS011;732;51.698;4.886;2023-07-24T11:07:36;11.07;;;8.60;;
1479;SDS011;732;51.698;4.886;2023-07-24T11:10:15;14.25;;;8.30;;
1479;SDS011;732;51.698;4.886;2023-07-24T11:12:47;15.13;;;9.27;;
1479;SDS011;732;51.698;4.886;2023-07-24T11:15:23;12.83;;;8.20;;
1479;SDS011;732;51.698;4.886;2023-07-24T11:17:54;11.20;;;8.00;;
1479;SDS011;732;51.698;4.886;2023-07-24T11:20:23;11.07;;;7.70;;
1479;SDS011;732;51.698;4.886;2023-07-24T11:22:51;11.17;;;8.00;;
1479;SDS011;732;51.698;4.886;2023-07-24T11:25:21;11.63;;;9.67;;
1479;SDS011;732;51.698;4.886;2023-07-24T11:27:50;15.00;;;8.83;;
1479;SDS011;732;51.698;4.886;2023-07-24T11:30:19;19.73;;;9.83;;
1479;SDS011;732;51.698;4.886;2023-07-24T11:32:48;11.40;;;9.80;;
1479;SDS011;732;51.698;4.886;2023-07-24T11:35:17;11.90;;;9.83;;
1479;SDS011;732;51.698;4.886;2023-07-24T11:37:48;12.67;;;10.47;;
1479;SDS011;732;51.698;4.886;2023-07-24T11:40:17;18.40;;;9.80;;
1479;SDS011;732;51.698;4.886;2023-07-24T11:42:48;14.90;;;10.23;;
1479;SDS011;732;51.698;4.886;2023-07-24T11:45:17;18.63;;;10.13;;
1479;SDS011;732;51.698;4.886;2023-07-24T11:47:46;11.80;;;9.73;;
1479;SDS011;732;51.698;4.886;2023-07-24T11:50:16;15.90;;;9.80;;
1479;SDS011;732;51.698;4.886;2023-07-24T11:52:45;15.00;;;9.83;;
1479;SDS011;732;51.698;4.886;2023-07-24T11:55:16;11.90;;;9.17;;
1479;SDS011;732;51.698;4.886;2023-07-24T11:57:57;15.17;;;9.50;;
1479;SDS011;732;51.698;4.886;2023-07-24T12:00:26;14.23;;;10.40;;
1479;SDS011;732;51.698;4.886;2023-07-24T12:02:58;13.10;;;8.73;;
1479;SDS011;732;51.698;4.886;2023-07-24T12:05:27;15.10;;;9.20;;
1479;SDS011;732;51.698;4.886;2023-07-24T12:07:56;11.20;;;9.23;;
1479;SDS011;732;51.698;4.886;2023-07-24T12:10:30;13.57;;;8.70;;
1479;SDS011;732;51.698;4.886;2023-07-24T12:13:01;14.27;;;8.43;;
1479;SDS011;732;51.698;4.886;2023-07-24T12:15:29;14.40;;;9.20;;
1479;SDS011;732;51.698;4.886;2023-07-24T12:17:59;13.60;;;10.20;;
1479;SDS011;732;51.698;4.886;2023-07-24T12:20:30;15.23;;;11.00;;
1479;SDS011;732;51.698;4.886;2023-07-24T12:23:00;15.83;;;12.40;;
1479;SDS011;732;51.698;4.886;2023-07-24T12:25:28;22.93;;;13.60;;
1479;SDS011;732;51.698;4.886;2023-07-24T12:27:57;15.83;;;13.27;;
1479;SDS011;732;51.698;4.886;2023-07-24T12:30:27;18.90;;;13.50;;
1479;SDS011;732;51.698;4.886;2023-07-24T12:32:56;18.57;;;14.13;;
1479;SDS011;732;51.698;4.886;2023-07-24T12:35:24;19.87;;;12.80;;
1479;SDS011;732;51.698;4.886;2023-07-24T12:37:53;13.20;;;11.03;;
1479;SDS011;732;51.698;4.886;2023-07-24T12:40:21;14.13;;;10.40;;
1479;SDS011;732;51.698;4.886;2023-07-24T12:42:50;12.90;;;10.30;;
1479;SDS011;732;51.698;4.886;2023-07-24T12:45:19;13.00;;;10.20;;
1479;SDS011;732;51.698;4.886;2023-07-24T12:47:49;11.80;;;8.40;;
1479;SDS011;732;51.698;4.886;2023-07-24T12:50:17;17.93;;;10.93;;
1479;SDS011;732;51.698;4.886;2023-07-24T12:52:46;17.93;;;11.73;;
1479;SDS011;732;51.698;4.886;2023-07-24T12:55:15;16.33;;;10.57;;
1479;SDS011;732;51.698;4.886;2023-07-24T12:57:44;13.50;;;9.50;;
1479;SDS011;732;51.698;4.886;2023-07-24T13:00:13;13.17;;;7.60;;
1479;SDS011;732;51.698;4.886;2023-07-24T13:02:41;13.20;;;5.80;;
1479;SDS011;732;51.698;4.886;2023-07-24T13:05:11;8.23;;;4.93;;
1479;SDS011;732;51.698;4.886;2023-07-24T13:07:40;9.33;;;5.40;;
1479;SDS011;732;51.698;4.886;2023-07-24T13:10:08;11.03;;;5.00;;
1479;SDS011;732;51.698;4.886;2023-07-24T13:12:37;7.73;;;4.63;;
1479;SDS011;732;51.698;4.886;2023-07-24T13:15:06;9.50;;;4.50;;
1479;SDS011;732;51.698;4.886;2023-07-24T13:17:35;10.63;;;4.53;;
1479;SDS011;732;51.698;4.886;2023-07-24T13:20:05;8.63;;;4.90;;
1479;SDS011;732;51.698;4.886;2023-07-24T13:22:36;6.73;;;4.90;;
1479;SDS011;732;51.698;4.886;2023-07-24T13:25:05;8.80;;;5.20;;
1479;SDS011;732;51.698;4.886;2023-07-24T13:27:34;7.10;;;4.63;;
1479;SDS011;732;51.698;4.886;2023-07-24T13:30:03;9.27;;;4.80;;
1479;SDS011;732;51.698;4.886;2023-07-24T13:32:32;7.80;;;4.60;;
1479;SDS011;732;51.698;4.886;2023-07-24T13:35:00;11.03;;;5.60;;
1479;SDS011;732;51.698;4.886;2023-07-24T13:37:29;13.90;;;4.80;;
1479;SDS011;732;51.698;4.886;2023-07-24T13:39:59;7.40;;;4.30;;
1479;SDS011;732;51.698;4.886;2023-07-24T13:42:27;9.43;;;4.47;;
1479;SDS011;732;51.698;4.886;2023-07-24T13:44:56;9.20;;;4.67;;
1479;SDS011;732;51.698;4.886;2023-07-24T13:47:24;8.20;;;5.70;;
1479;SDS011;732;51.698;4.886;2023-07-24T13:49:53;12.03;;;7.30;;
1479;SDS011;732;51.698;4.886;2023-07-24T13:52:21;10.07;;;5.93;;
1479;SDS011;732;51.698;4.886;2023-07-24T13:54:50;6.60;;;5.17;;
1479;SDS011;732;51.698;4.886;2023-07-24T13:57:20;8.17;;;4.93;;
1479;SDS011;732;51.698;4.886;2023-07-24T13:59:49;9.43;;;5.47;;
1479;SDS011;732;51.698;4.886;2023-07-24T14:02:18;8.13;;;5.30;;
1479;SDS011;732;51.698;4.886;2023-07-24T14:04:48;10.57;;;5.60;;
1479;SDS011;732;51.698;4.886;2023-07-24T14:07:16;9.13;;;5.00;;
1479;SDS011;732;51.698;4.886;2023-07-24T14:09:44;7.77;;;4.93;;
1479;SDS011;732;51.698;4.886;2023-07-24T14:12:13;8.07;;;5.43;;
1479;SDS011;732;51.698;4.886;2023-07-24T14:14:43;8.37;;;5.53;;
1479;SDS011;732;51.698;4.886;2023-07-24T14:17:11;9.20;;;5.30;;
1479;SDS011;732;51.698;4.886;2023-07-24T14:19:41;7.70;;;4.70;;
1479;SDS011;732;51.698;4.886;2023-07-24T14:22:09;6.87;;;5.40;;
1479;SDS011;732;51.698;4.886;2023-07-24T14:24:37;9.00;;;5.40;;
1479;SDS011;732;51.698;4.886;2023-07-24T14:27:06;9.67;;;4.73;;
1479;SDS011;732;51.698;4.886;2023-07-24T14:29:34;9.47;;;4.23;;
1479;SDS011;732;51.698;4.886;2023-07-24T14:32:05;5.50;;;3.47;;
1479;SDS011;732;51.698;4.886;2023-07-24T14:34:34;5.83;;;4.10;;
1479;SDS011;732;51.698;4.886;2023-07-24T14:37:03;6.20;;;3.67;;
1479;SDS011;732;51.698;4.886;2023-07-24T14:39:32;6.00;;;3.97;;
1479;SDS011;732;51.698;4.886;2023-07-24T14:42:00;4.90;;;3.30;;
1479;SDS011;732;51.698;4.886;2023-07-24T14:44:29;6.47;;;3.70;;
1479;SDS011;732;51.698;4.886;2023-07-24T14:46:57;5.70;;;2.90;;
1479;SDS011;732;51.698;4.886;2023-07-24T14:49:27;5.77;;;3.30;;
1479;SDS011;732;51.698;4.886;2023-07-24T14:51:55;4.60;;;2.63;;
1479;SDS011;732;51.698;4.886;2023-07-24T14:54:24;9.73;;;3.27;;
1479;SDS011;732;51.698;4.886;2023-07-24T14:56:52;4.57;;;3.10;;
1479;SDS011;732;51.698;4.886;2023-07-24T14:59:35;5.73;;;2.93;;
1479;SDS011;732;51.698;4.886;2023-07-24T15:02:04;8.90;;;3.40;;
1479;SDS011;732;51.698;4.886;2023-07-24T15:04:35;6.93;;;3.13;;
1479;SDS011;732;51.698;4.886;2023-07-24T15:07:04;8.03;;;3.43;;
1479;SDS011;732;51.698;4.886;2023-07-24T15:09:33;7.10;;;3.37;;
1479;SDS011;732;51.698;4.886;2023-07-24T15:12:01;5.13;;;3.03;;
1479;SDS011;732;51.698;4.886;2023-07-24T15:14:30;4.83;;;2.63;;
1479;SDS011;732;51.698;4.886;2023-07-24T15:17:02;6.80;;;3.23;;
1479;SDS011;732;51.698;4.886;2023-07-24T15:19:31;5.60;;;2.37;;
1479;SDS011;732;51.698;4.886;2023-07-24T15:22:02;7.40;;;3.03;;
1479;SDS011;732;51.698;4.886;2023-07-24T15:24:30;7.63;;;2.83;;
1479;SDS011;732;51.698;4.886;2023-07-24T15:26:58;12.73;;;4.30;;
1479;SDS011;732;51.698;4.886;2023-07-24T15:29:28;5.57;;;2.50;;
1479;SDS011;732;51.698;4.886;2023-07-24T15:31:57;9.87;;;2.90;;